Main page
METAR-TAF:

METAR-TAF

Airports :

Taos Regional Airport

Taos, New Mexico, United States

latitude: 36-27N, longitude: 105-40W, elevation: 7088 ft

Current weather observation

The report was made 49 minutes ago, at 02:56 UTC
Wind 7 mph from the West/Southwest
Temperature 70°F
Humidity 11%
Pressure 30.17 in. Hg
Visibility: 10 miles
Clear sky

METAR: KSKX 260256Z AUTO 25006KT 10SM CLR 21/M10 A3017 RMK AO2 SLP138 T02061100 53004 $

Time: 21:45 (03:45 UTC)


TAF: missing

Weather observations and forecasts of more than 4000 airports (METAR and TAF reports).

The available stations are represented by yellow and red dots on the map.

Hover mouse over dot to see the name of the station.

Then click to see weather observations and forecasts.

To change the map : click on the green buttons with a black cross to zoom in, on the green button with a dash to zoom out, or on the green arrows for adjacent maps.


METAR-TAF: